createdAt,value
2023-05-09T00:02:07.946Z,12.86
2023-05-09T00:04:35.432Z,12.84
2023-05-09T00:07:02.247Z,12.90
2023-05-09T00:09:28.868Z,12.79
2023-05-09T00:11:55.497Z,12.62
2023-05-09T00:14:22.192Z,12.71
2023-05-09T00:16:49.235Z,12.71
2023-05-09T00:19:16.070Z,12.80
2023-05-09T00:21:42.724Z,12.80
2023-05-09T00:24:09.306Z,12.83
2023-05-09T00:26:35.930Z,12.83
2023-05-09T00:29:02.675Z,12.82
2023-05-09T00:31:29.361Z,12.91
2023-05-09T00:33:56.109Z,12.96
2023-05-09T00:36:23.453Z,13.05
2023-05-09T00:38:50.134Z,13.05
2023-05-09T00:41:16.695Z,13.02
2023-05-09T00:43:43.476Z,13.09
2023-05-09T00:46:10.329Z,13.00
2023-05-09T00:48:37.076Z,13.00
2023-05-09T00:51:04.922Z,12.93
2023-05-09T00:53:31.696Z,13.16
2023-05-09T00:56:00.253Z,13.17
2023-05-09T00:58:27.394Z,13.09
2023-05-09T01:00:54.134Z,13.32
2023-05-09T01:03:21.001Z,13.16
2023-05-09T01:06:20.231Z,13.21
2023-05-09T01:09:00.001Z,13.26
2023-05-09T01:11:33.471Z,13.33
2023-05-09T01:14:15.690Z,13.48
2023-05-09T01:16:50.078Z,13.32
2023-05-09T01:19:27.631Z,13.24
2023-05-09T01:21:56.430Z,13.25
2023-05-09T01:24:28.810Z,13.28
2023-05-09T01:27:07.234Z,13.56
2023-05-09T01:29:45.093Z,13.52
2023-05-09T01:32:20.313Z,13.49
2023-05-09T01:34:48.100Z,13.53
2023-05-09T01:37:16.367Z,13.42
2023-05-09T01:39:49.155Z,13.38
2023-05-09T01:42:17.416Z,13.24
2023-05-09T01:44:45.910Z,13.23
2023-05-09T01:47:13.114Z,13.28
2023-05-09T01:49:41.209Z,13.28
2023-05-09T01:52:10.250Z,13.26
2023-05-09T01:54:38.462Z,13.13
2023-05-09T01:57:06.526Z,13.08
2023-05-09T01:59:34.732Z,13.03
2023-05-09T02:02:03.240Z,13.08
2023-05-09T02:04:30.963Z,13.03
2023-05-09T02:06:58.200Z,13.00
2023-05-09T02:09:24.937Z,13.06
2023-05-09T02:11:51.729Z,13.01
2023-05-09T02:14:19.693Z,13.03
2023-05-09T02:16:46.419Z,12.98
2023-05-09T02:19:13.086Z,12.90
2023-05-09T02:21:39.891Z,12.79
2023-05-09T02:24:06.725Z,12.79
2023-05-09T02:26:35.851Z,12.75
2023-05-09T02:29:03.633Z,12.69
2023-05-09T02:31:30.916Z,12.79
2023-05-09T02:33:59.323Z,12.63
2023-05-09T02:36:26.486Z,12.59
2023-05-09T02:38:53.218Z,12.67
2023-05-09T02:41:19.971Z,12.57
2023-05-09T02:43:47.464Z,12.64
2023-05-09T02:46:14.856Z,12.61
2023-05-09T02:48:41.550Z,12.51
2023-05-09T02:51:08.299Z,12.53
2023-05-09T02:53:34.984Z,12.44
2023-05-09T02:56:01.917Z,12.38
2023-05-09T02:58:28.594Z,12.47
2023-05-09T03:00:55.333Z,12.44
2023-05-09T03:03:23.441Z,12.42
2023-05-09T03:05:51.531Z,12.34
2023-05-09T03:08:18.215Z,12.38
2023-05-09T03:10:44.997Z,12.27
2023-05-09T03:13:11.708Z,12.18
2023-05-09T03:15:38.601Z,12.14
2023-05-09T03:18:06.420Z,12.25
2023-05-09T03:20:33.166Z,12.32
2023-05-09T03:22:59.821Z,12.19
2023-05-09T03:25:26.710Z,12.18
2023-05-09T03:27:53.387Z,12.16
2023-05-09T03:30:20.187Z,12.20
2023-05-09T03:32:49.109Z,12.21
2023-05-09T03:35:16.338Z,12.33
2023-05-09T03:37:43.491Z,12.22
2023-05-09T03:40:10.847Z,12.26
2023-05-09T03:42:45.488Z,12.29
2023-05-09T03:45:12.544Z,12.65
2023-05-09T03:47:39.754Z,12.62
2023-05-09T03:50:07.091Z,12.46
2023-05-09T03:52:34.396Z,12.14
2023-05-09T03:55:01.701Z,12.00
2023-05-09T03:57:32.058Z,12.30
2023-05-09T03:59:58.749Z,12.36
2023-05-09T04:02:25.676Z,12.13
2023-05-09T04:04:53.102Z,11.97
2023-05-09T04:07:22.056Z,12.11
2023-05-09T04:09:49.565Z,12.12
2023-05-09T04:12:16.508Z,12.13
2023-05-09T04:14:46.168Z,11.99
2023-05-09T04:17:14.872Z,11.89
2023-05-09T04:19:41.493Z,12.04
2023-05-09T04:22:08.164Z,12.07
2023-05-09T04:24:34.786Z,12.11
2023-05-09T04:27:02.296Z,12.19
2023-05-09T04:29:29.056Z,12.30
2023-05-09T04:31:56.562Z,12.13
2023-05-09T04:34:27.144Z,12.02
2023-05-09T04:36:55.470Z,12.11
2023-05-09T04:39:22.257Z,12.24
2023-05-09T04:41:58.086Z,12.25
2023-05-09T04:44:24.940Z,12.39
2023-05-09T04:46:52.159Z,12.35
2023-05-09T04:49:18.901Z,12.39
2023-05-09T04:51:45.548Z,12.51
2023-05-09T04:54:12.203Z,12.58
2023-05-09T04:56:41.021Z,12.72
2023-05-09T04:59:07.841Z,12.76
2023-05-09T05:01:34.585Z,12.70
2023-05-09T05:04:01.602Z,12.94
2023-05-09T05:06:30.145Z,12.76
2023-05-09T05:08:56.920Z,12.88
2023-05-09T05:11:23.537Z,12.95
2023-05-09T05:13:50.351Z,13.13
2023-05-09T05:16:17.142Z,13.41
2023-05-09T05:18:44.426Z,13.33
2023-05-09T05:21:11.224Z,13.46
2023-05-09T05:23:37.965Z,13.72
2023-05-09T05:26:05.285Z,13.71
2023-05-09T05:28:34.474Z,13.93
2023-05-09T05:31:02.172Z,14.14
2023-05-09T05:33:28.873Z,14.26
2023-05-09T05:35:56.028Z,14.42
2023-05-09T05:38:22.810Z,14.53
2023-05-09T05:40:53.381Z,14.57
2023-05-09T05:43:21.062Z,14.72
2023-05-09T05:45:47.828Z,14.63
2023-05-09T05:48:17.979Z,14.56
2023-05-09T05:50:46.269Z,14.60
2023-05-09T05:53:15.262Z,14.84
2023-05-09T05:55:42.060Z,15.08
2023-05-09T05:58:08.699Z,15.39
2023-05-09T06:00:36.209Z,15.53
2023-05-09T06:03:05.828Z,15.75
2023-05-09T06:05:46.904Z,15.65
2023-05-09T06:08:13.757Z,15.79
2023-05-09T06:10:40.443Z,15.70
2023-05-09T06:13:07.276Z,15.82
2023-05-09T06:15:35.750Z,15.90
2023-05-09T06:18:02.530Z,15.90
2023-05-09T06:20:29.323Z,15.95
2023-05-09T06:22:56.089Z,15.81
2023-05-09T06:25:22.685Z,15.80
2023-05-09T06:27:49.395Z,15.97
2023-05-09T06:30:25.328Z,16.13
2023-05-09T06:32:53.906Z,16.38
2023-05-09T06:35:20.860Z,16.50
2023-05-09T06:37:48.764Z,16.66
2023-05-09T06:40:16.533Z,16.48
2023-05-09T06:42:43.149Z,16.61
2023-05-09T06:45:10.398Z,16.88
2023-05-09T06:47:37.361Z,17.06
2023-05-09T06:50:04.279Z,16.75
2023-05-09T06:52:30.874Z,16.62
2023-05-09T06:54:57.662Z,16.92
2023-05-09T06:57:24.322Z,17.00
2023-05-09T06:59:51.102Z,16.80
2023-05-09T07:02:17.768Z,16.93
2023-05-09T07:04:44.386Z,17.21
2023-05-09T07:07:11.236Z,17.39
2023-05-09T07:09:38.039Z,17.27
2023-05-09T07:12:05.118Z,17.37
2023-05-09T07:14:31.861Z,17.59
2023-05-09T07:17:13.714Z,17.39
2023-05-09T07:19:45.446Z,17.34
2023-05-09T07:22:13.431Z,17.64
2023-05-09T07:24:40.304Z,17.71
2023-05-09T07:27:07.003Z,17.98
2023-05-09T07:29:33.751Z,18.18
2023-05-09T07:32:00.531Z,18.13
2023-05-09T07:34:27.422Z,18.33
2023-05-09T07:36:54.019Z,18.55
2023-05-09T07:39:20.750Z,18.53
2023-05-09T07:41:48.700Z,18.26
2023-05-09T07:44:15.982Z,18.76
2023-05-09T07:46:42.836Z,18.68
2023-05-09T07:49:10.008Z,18.56
2023-05-09T07:51:36.701Z,18.79
2023-05-09T07:54:03.518Z,18.68
2023-05-09T07:56:30.267Z,18.60
2023-05-09T07:58:56.942Z,18.81
2023-05-09T08:01:23.625Z,18.99
2023-05-09T08:03:50.819Z,19.13
2023-05-09T08:06:17.594Z,19.33
2023-05-09T08:08:44.260Z,19.58
2023-05-09T08:11:10.847Z,19.69
2023-05-09T08:13:37.536Z,20.06
2023-05-09T08:16:04.592Z,20.33
2023-05-09T08:18:31.588Z,20.45
2023-05-09T08:20:59.686Z,20.44
2023-05-09T08:23:26.869Z,20.49
2023-05-09T08:25:56.650Z,20.76
2023-05-09T08:28:24.319Z,20.72
2023-05-09T08:30:51.779Z,20.61
2023-05-09T08:33:18.452Z,20.56
2023-05-09T08:35:46.102Z,20.74
2023-05-09T08:38:12.868Z,20.87
2023-05-09T08:40:41.137Z,20.61
2023-05-09T08:43:08.804Z,20.12
2023-05-09T08:45:47.293Z,20.16
2023-05-09T08:48:17.662Z,20.17
2023-05-09T08:50:44.597Z,20.06
2023-05-09T08:53:12.133Z,20.18
2023-05-09T08:55:39.282Z,19.89
2023-05-09T08:58:06.674Z,19.94
2023-05-09T09:00:34.044Z,19.93
2023-05-09T09:03:04.115Z,20.19
2023-05-09T09:05:41.469Z,20.29
2023-05-09T09:08:10.130Z,20.00
2023-05-09T09:10:40.141Z,20.02
2023-05-09T09:13:07.255Z,20.40
2023-05-09T09:15:37.058Z,20.42
2023-05-09T09:18:09.995Z,20.76
2023-05-09T09:21:06.823Z,20.09
2023-05-09T09:23:33.544Z,19.95
2023-05-09T09:26:02.141Z,19.95
2023-05-09T09:28:29.535Z,19.83
2023-05-09T09:30:57.039Z,19.91
2023-05-09T09:33:25.021Z,19.96
2023-05-09T09:35:53.176Z,20.49
2023-05-09T09:38:24.072Z,20.93
2023-05-09T09:40:57.912Z,21.16
2023-05-09T09:43:28.843Z,21.15
2023-05-09T09:45:57.144Z,20.98
2023-05-09T09:48:27.546Z,21.16
2023-05-09T09:50:56.743Z,21.33
2023-05-09T09:53:23.988Z,21.08
2023-05-09T09:55:52.025Z,21.14
2023-05-09T09:58:22.179Z,21.60
2023-05-09T10:01:07.587Z,21.76
2023-05-09T10:03:42.390Z,22.10
2023-05-09T10:06:13.488Z,22.45
2023-05-09T10:08:41.309Z,22.79
2023-05-09T10:11:09.438Z,22.51
2023-05-09T10:13:36.590Z,22.47
2023-05-09T10:16:04.057Z,22.57
2023-05-09T10:18:31.497Z,22.56
2023-05-09T10:21:03.995Z,22.82
2023-05-09T10:23:32.023Z,22.35
2023-05-09T10:26:21.029Z,21.98
2023-05-09T10:28:49.315Z,21.60
2023-05-09T10:31:22.211Z,21.89
2023-05-09T10:33:50.379Z,22.22
2023-05-09T10:36:20.431Z,22.42
2023-05-09T10:38:47.272Z,22.31
2023-05-09T10:41:15.524Z,22.33
2023-05-09T10:43:43.431Z,22.44
2023-05-09T10:46:10.275Z,22.27
2023-05-09T10:48:37.388Z,21.98
2023-05-09T10:51:04.645Z,21.99
2023-05-09T10:53:45.892Z,22.11
2023-05-09T10:56:35.826Z,22.34
2023-05-09T10:59:02.897Z,22.33
2023-05-09T11:01:30.534Z,21.74
2023-05-09T11:03:59.396Z,21.69
2023-05-09T11:06:51.549Z,21.76
2023-05-09T11:09:25.404Z,21.51
2023-05-09T11:11:53.157Z,21.69
2023-05-09T11:14:39.550Z,21.52
2023-05-09T11:17:26.234Z,21.73
2023-05-09T11:19:52.846Z,21.91
2023-05-09T11:22:21.267Z,21.78
2023-05-09T11:24:53.936Z,21.87
2023-05-09T11:27:21.739Z,21.78
2023-05-09T11:29:59.450Z,21.72
2023-05-09T11:32:32.265Z,21.05
2023-05-09T11:35:14.745Z,21.47
2023-05-09T11:38:01.123Z,21.31
2023-05-09T11:40:28.799Z,21.08
2023-05-09T11:42:58.613Z,21.31
2023-05-09T11:45:27.407Z,21.42
2023-05-09T11:47:54.660Z,21.47
2023-05-09T11:50:21.805Z,21.77
2023-05-09T11:52:48.947Z,22.16
2023-05-09T11:55:17.627Z,22.26
2023-05-09T11:57:50.001Z,22.36
2023-05-09T12:00:21.504Z,22.40
2023-05-09T12:02:49.227Z,21.88
2023-05-09T12:05:18.672Z,21.58
2023-05-09T12:07:46.147Z,20.52
2023-05-09T12:10:17.306Z,19.92
2023-05-09T12:12:51.461Z,19.26
2023-05-09T12:15:19.253Z,18.93
2023-05-09T12:17:47.322Z,18.97
2023-05-09T12:20:15.261Z,19.06
2023-05-09T12:22:45.058Z,19.43
2023-05-09T12:25:12.412Z,19.51
2023-05-09T12:27:40.838Z,19.44
2023-05-09T12:30:10.804Z,19.75
2023-05-09T12:32:39.677Z,19.68
2023-05-09T12:35:10.741Z,19.66
2023-05-09T12:37:37.838Z,19.85
2023-05-09T12:40:15.865Z,19.53
2023-05-09T12:42:46.420Z,19.82
2023-05-09T12:45:13.989Z,20.17
2023-05-09T12:47:42.062Z,20.21
2023-05-09T12:50:11.629Z,20.65
2023-05-09T12:52:50.679Z,20.76
2023-05-09T12:55:25.572Z,21.06
2023-05-09T12:58:03.442Z,20.81
2023-05-09T13:00:42.602Z,20.59
2023-05-09T13:03:25.981Z,20.65
2023-05-09T13:06:03.771Z,21.11
2023-05-09T13:08:30.981Z,20.99
2023-05-09T13:11:12.190Z,20.42
2023-05-09T13:13:42.988Z,20.54
2023-05-09T13:16:10.704Z,20.79
2023-05-09T13:18:38.784Z,20.88
2023-05-09T13:21:05.663Z,20.92
2023-05-09T13:23:32.577Z,20.55
2023-05-09T13:25:59.255Z,20.62
2023-05-09T13:28:25.977Z,20.97
2023-05-09T13:30:52.606Z,21.10
2023-05-09T13:33:25.742Z,21.05
2023-05-09T13:35:53.300Z,20.88
2023-05-09T13:38:19.949Z,20.57
2023-05-09T13:40:46.619Z,20.28
2023-05-09T13:43:13.359Z,20.46
2023-05-09T13:45:40.149Z,19.56
2023-05-09T13:48:06.939Z,19.23
2023-05-09T13:50:34.266Z,19.38
2023-05-09T13:53:00.897Z,19.23
2023-05-09T13:55:27.685Z,18.95
2023-05-09T13:57:54.928Z,18.60
2023-05-09T14:00:22.154Z,18.24
2023-05-09T14:02:48.931Z,17.95
2023-05-09T14:05:16.864Z,17.86
2023-05-09T14:07:43.621Z,17.73
2023-05-09T14:10:12.299Z,17.39
2023-05-09T14:12:40.207Z,17.36
2023-05-09T14:15:08.088Z,16.99
2023-05-09T14:17:34.901Z,16.76
2023-05-09T14:20:01.767Z,16.62
2023-05-09T14:22:28.509Z,16.65
2023-05-09T14:24:57.391Z,16.36
2023-05-09T14:27:25.136Z,16.41
2023-05-09T14:29:52.062Z,16.53
2023-05-09T14:32:18.865Z,16.39
2023-05-09T14:34:45.928Z,16.58
2023-05-09T14:37:15.651Z,16.39
2023-05-09T14:39:43.248Z,16.66
2023-05-09T14:42:11.546Z,16.79
2023-05-09T14:44:38.832Z,17.03
2023-05-09T14:47:05.855Z,16.98
2023-05-09T14:49:32.941Z,16.98
2023-05-09T14:51:59.852Z,16.71
2023-05-09T14:54:26.561Z,16.70
2023-05-09T14:56:53.274Z,16.46
2023-05-09T14:59:20.008Z,16.28
2023-05-09T15:01:47.058Z,16.23
2023-05-09T15:04:13.835Z,16.42
2023-05-09T15:06:41.019Z,16.59
2023-05-09T15:09:07.905Z,16.61
2023-05-09T15:11:46.776Z,16.55
2023-05-09T15:14:16.321Z,16.39
2023-05-09T15:16:43.113Z,16.41
2023-05-09T15:19:09.853Z,16.36
2023-05-09T15:21:36.559Z,16.23
2023-05-09T15:24:04.267Z,16.32
2023-05-09T15:26:31.119Z,16.41
2023-05-09T15:28:57.740Z,16.30
2023-05-09T15:31:25.629Z,15.96
2023-05-09T15:33:52.463Z,15.78
2023-05-09T15:36:19.092Z,15.90
2023-05-09T15:38:49.474Z,15.94
2023-05-09T15:41:16.709Z,15.76
2023-05-09T15:43:43.400Z,15.68
2023-05-09T15:46:10.160Z,15.53
2023-05-09T15:48:36.794Z,15.28
2023-05-09T15:51:04.174Z,15.03
2023-05-09T15:53:30.959Z,14.88
2023-05-09T15:55:57.837Z,14.84
2023-05-09T15:58:24.446Z,14.78
2023-05-09T16:00:52.627Z,14.62
2023-05-09T16:03:19.832Z,14.61
2023-05-09T16:05:46.560Z,14.41
2023-05-09T16:08:13.263Z,14.35
2023-05-09T16:10:40.737Z,14.42
2023-05-09T16:13:07.742Z,14.44
2023-05-09T16:15:35.232Z,14.41
2023-05-09T16:18:02.134Z,14.14
2023-05-09T16:20:28.794Z,14.09
2023-05-09T16:22:55.581Z,14.05
2023-05-09T16:25:22.231Z,14.26
2023-05-09T16:27:49.068Z,14.19
2023-05-09T16:30:16.211Z,14.09
2023-05-09T16:32:43.503Z,14.28
2023-05-09T16:35:10.338Z,14.30
2023-05-09T16:37:37.423Z,14.27
2023-05-09T16:40:04.527Z,14.31
2023-05-09T16:42:31.250Z,14.25
2023-05-09T16:44:57.920Z,14.26
2023-05-09T16:47:24.728Z,14.23
2023-05-09T16:49:51.524Z,14.14
2023-05-09T16:52:18.452Z,14.18
2023-05-09T16:54:45.319Z,14.04
2023-05-09T16:57:12.914Z,13.98
2023-05-09T16:59:39.659Z,13.96
2023-05-09T17:02:06.466Z,14.06
2023-05-09T17:04:34.742Z,14.05
2023-05-09T17:07:02.768Z,13.99
2023-05-09T17:09:29.529Z,13.93
2023-05-09T17:11:56.455Z,13.85
2023-05-09T17:14:23.258Z,14.01
2023-05-09T17:16:50.119Z,13.85
2023-05-09T17:19:16.931Z,13.80
2023-05-09T17:21:44.264Z,14.00
2023-05-09T17:24:10.996Z,14.04
2023-05-09T17:26:38.671Z,14.07
2023-05-09T17:29:05.364Z,13.91
2023-05-09T17:31:32.433Z,13.72
2023-05-09T17:33:59.109Z,13.65
2023-05-09T17:36:25.948Z,13.76
2023-05-09T17:38:52.706Z,13.61
2023-05-09T17:41:19.430Z,13.66
2023-05-09T17:43:46.152Z,13.61
2023-05-09T17:46:14.884Z,13.58
2023-05-09T17:48:42.032Z,13.55
2023-05-09T17:51:09.148Z,13.49
2023-05-09T17:53:35.894Z,13.41
2023-05-09T17:56:02.610Z,13.42
2023-05-09T17:58:29.943Z,13.40
2023-05-09T18:00:58.601Z,13.37
2023-05-09T18:03:27.236Z,13.41
2023-05-09T18:05:53.984Z,13.43
2023-05-09T18:08:20.594Z,13.39
2023-05-09T18:10:47.238Z,13.39
2023-05-09T18:13:14.164Z,13.41
2023-05-09T18:15:41.192Z,13.39
2023-05-09T18:18:07.923Z,13.35
2023-05-09T18:20:34.823Z,13.37
2023-05-09T18:23:01.571Z,13.38
2023-05-09T18:25:28.263Z,13.35
2023-05-09T18:27:55.831Z,13.27
2023-05-09T18:30:22.531Z,13.33
2023-05-09T18:32:49.141Z,13.23
2023-05-09T18:35:16.172Z,13.24
2023-05-09T18:37:42.980Z,13.22
2023-05-09T18:40:14.692Z,13.10
2023-05-09T18:42:42.081Z,13.16
2023-05-09T18:45:10.086Z,13.11
2023-05-09T18:47:37.514Z,13.09
2023-05-09T18:50:05.412Z,13.03
2023-05-09T18:52:32.349Z,13.06
2023-05-09T18:54:58.992Z,13.07
2023-05-09T18:57:26.248Z,13.08
2023-05-09T18:59:52.935Z,13.08
2023-05-09T19:02:20.599Z,13.15
2023-05-09T19:04:48.137Z,13.10
2023-05-09T19:07:15.079Z,13.05
2023-05-09T19:09:42.439Z,13.03
2023-05-09T19:12:09.814Z,13.06
2023-05-09T19:14:37.808Z,13.03
2023-05-09T19:17:05.648Z,13.06
2023-05-09T19:19:32.732Z,13.04
2023-05-09T19:22:00.938Z,12.99
2023-05-09T19:24:28.554Z,12.98
2023-05-09T19:26:55.932Z,12.96
2023-05-09T19:29:22.758Z,12.97
2023-05-09T19:31:49.929Z,12.97
2023-05-09T19:34:16.908Z,12.98
2023-05-09T19:36:43.747Z,13.00
2023-05-09T19:39:11.213Z,12.99
2023-05-09T19:41:38.053Z,12.98
2023-05-09T19:44:06.877Z,12.86
2023-05-09T19:46:35.179Z,12.96
2023-05-09T19:49:02.817Z,12.90
2023-05-09T19:51:29.665Z,12.89
2023-05-09T19:53:56.349Z,12.87
2023-05-09T19:56:23.329Z,12.76
2023-05-09T19:58:50.369Z,12.82
2023-05-09T20:01:19.081Z,12.82
2023-05-09T20:03:47.118Z,12.83
2023-05-09T20:06:13.920Z,12.82
2023-05-09T20:08:40.628Z,12.65
2023-05-09T20:11:07.843Z,12.52
2023-05-09T20:13:34.551Z,12.53
2023-05-09T20:16:02.818Z,12.57
2023-05-09T20:18:33.348Z,12.59
2023-05-09T20:21:00.363Z,12.68
2023-05-09T20:23:29.915Z,12.56
2023-05-09T20:25:56.704Z,12.55
2023-05-09T20:28:23.361Z,12.44
2023-05-09T20:30:50.160Z,12.49
2023-05-09T20:33:16.920Z,12.45
2023-05-09T20:35:43.940Z,12.49
2023-05-09T20:38:11.648Z,12.35
2023-05-09T20:40:38.596Z,12.21
2023-05-09T20:43:05.482Z,12.38
2023-05-09T20:45:32.398Z,12.42
2023-05-09T20:47:59.405Z,12.35
2023-05-09T20:50:26.122Z,12.38
2023-05-09T20:52:52.712Z,12.32
2023-05-09T20:55:19.540Z,12.21
2023-05-09T20:57:46.123Z,12.27
2023-05-09T21:00:13.335Z,12.38
2023-05-09T21:02:40.155Z,12.37
2023-05-09T21:05:07.304Z,12.29
2023-05-09T21:07:33.952Z,12.30
2023-05-09T21:10:00.695Z,12.27
2023-05-09T21:12:27.454Z,12.14
2023-05-09T21:14:54.088Z,12.03
2023-05-09T21:17:20.754Z,12.12
2023-05-09T21:19:51.443Z,12.14
2023-05-09T21:22:18.231Z,12.19
2023-05-09T21:24:44.820Z,12.13
2023-05-09T21:27:11.495Z,12.09
2023-05-09T21:29:38.165Z,12.12
2023-05-09T21:32:05.057Z,12.06
2023-05-09T21:34:31.668Z,11.96
2023-05-09T21:36:58.429Z,12.04
2023-05-09T21:39:25.516Z,12.05
2023-05-09T21:41:52.236Z,12.06
2023-05-09T21:44:18.838Z,12.02
2023-05-09T21:46:46.464Z,12.00
2023-05-09T21:49:16.601Z,12.01
2023-05-09T21:51:43.487Z,12.03
2023-05-09T21:54:10.894Z,11.99
2023-05-09T21:56:37.891Z,12.00
2023-05-09T21:59:04.814Z,11.96
2023-05-09T22:01:31.656Z,11.99
2023-05-09T22:03:58.720Z,12.02
2023-05-09T22:06:25.496Z,12.00
2023-05-09T22:08:52.114Z,12.05
2023-05-09T22:11:18.808Z,12.06
2023-05-09T22:13:45.458Z,12.01
2023-05-09T22:16:12.147Z,12.05
2023-05-09T22:18:38.775Z,12.07
2023-05-09T22:21:05.749Z,12.05
2023-05-09T22:23:32.314Z,12.09
2023-05-09T22:25:58.968Z,12.12
2023-05-09T22:28:25.546Z,12.11
2023-05-09T22:30:52.340Z,12.12
2023-05-09T22:33:18.917Z,12.18
2023-05-09T22:35:45.998Z,12.18
2023-05-09T22:38:12.614Z,12.10
2023-05-09T22:40:39.242Z,12.01
2023-05-09T22:43:05.907Z,12.13
2023-05-09T22:45:32.522Z,12.05
2023-05-09T22:47:59.198Z,12.15
2023-05-09T22:50:25.932Z,12.02
2023-05-09T22:52:52.654Z,12.03
2023-05-09T22:55:20.114Z,11.94
2023-05-09T22:57:47.421Z,11.86
2023-05-09T23:00:15.008Z,11.89
2023-05-09T23:02:42.084Z,11.91
2023-05-09T23:05:09.346Z,11.84
2023-05-09T23:07:36.122Z,11.89
2023-05-09T23:10:03.546Z,11.90
2023-05-09T23:12:30.243Z,11.96
2023-05-09T23:14:56.854Z,11.89
2023-05-09T23:17:23.768Z,11.86
2023-05-09T23:19:50.605Z,11.87
2023-05-09T23:22:17.252Z,11.96
2023-05-09T23:24:43.836Z,11.92
2023-05-09T23:27:10.583Z,11.94
2023-05-09T23:29:37.190Z,11.93
2023-05-09T23:32:04.196Z,11.86
2023-05-09T23:34:31.116Z,11.97
2023-05-09T23:36:57.808Z,11.93
2023-05-09T23:39:24.448Z,11.97
2023-05-09T23:41:51.147Z,11.95
2023-05-09T23:44:17.749Z,11.92
2023-05-09T23:46:44.531Z,11.90
2023-05-09T23:49:13.284Z,11.90
2023-05-09T23:51:40.502Z,11.89
2023-05-09T23:54:07.975Z,11.92
2023-05-09T23:56:34.775Z,11.87
2023-05-09T23:59:01.391Z,11.80
